sensor_id;sensor_type;location;lat;lon;timestamp;P1;durP1;ratioP1;P2;durP2;ratioP2
18647;SDS011;9453;50.294;18.644;2023-06-22T04:03:09;34.15;;;17.25;;
18647;SDS011;9453;50.294;18.644;2023-06-22T04:05:38;36.28;;;18.75;;
18647;SDS011;9453;50.294;18.644;2023-06-22T04:08:05;29.75;;;19.95;;
18647;SDS011;9453;50.294;18.644;2023-06-22T04:10:32;31.27;;;19.48;;
18647;SDS011;9453;50.294;18.644;2023-06-22T04:12:59;27.55;;;19.02;;
18647;SDS011;9453;50.294;18.644;2023-06-22T04:15:26;34.60;;;20.33;;
18647;SDS011;9453;50.294;18.644;2023-06-22T04:17:54;34.13;;;19.77;;
18647;SDS011;9453;50.294;18.644;2023-06-22T04:20:23;32.72;;;18.55;;
18647;SDS011;9453;50.294;18.644;2023-06-22T04:22:51;35.60;;;20.55;;
18647;SDS011;9453;50.294;18.644;2023-06-22T04:25:19;27.90;;;18.83;;
18647;SDS011;9453;50.294;18.644;2023-06-22T04:27:46;32.58;;;19.40;;
18647;SDS011;9453;50.294;18.644;2023-06-22T04:30:13;36.05;;;19.20;;
18647;SDS011;9453;50.294;18.644;2023-06-22T04:32:41;30.95;;;19.15;;
18647;SDS011;9453;50.294;18.644;2023-06-22T04:35:09;30.65;;;18.98;;
18647;SDS011;9453;50.294;18.644;2023-06-22T04:37:38;35.75;;;21.05;;
18647;SDS011;9453;50.294;18.644;2023-06-22T04:40:06;29.02;;;20.02;;
18647;SDS011;9453;50.294;18.644;2023-06-22T04:42:34;30.70;;;19.33;;
18647;SDS011;9453;50.294;18.644;2023-06-22T04:45:02;29.50;;;18.73;;
18647;SDS011;9453;50.294;18.644;2023-06-22T04:47:30;29.42;;;20.13;;
18647;SDS011;9453;50.294;18.644;2023-06-22T04:49:56;28.85;;;19.38;;
18647;SDS011;9453;50.294;18.644;2023-06-22T04:52:24;29.80;;;17.52;;
18647;SDS011;9453;50.294;18.644;2023-06-22T04:54:52;27.25;;;18.48;;
18647;SDS011;9453;50.294;18.644;2023-06-22T04:57:24;30.65;;;19.80;;
18647;SDS011;9453;50.294;18.644;2023-06-22T04:59:57;34.47;;;20.27;;
18647;SDS011;9453;50.294;18.644;2023-06-22T05:02:32;29.92;;;18.52;;
18647;SDS011;9453;50.294;18.644;2023-06-22T05:04:59;30.77;;;19.85;;
18647;SDS011;9453;50.294;18.644;2023-06-22T05:07:31;37.00;;;19.30;;
18647;SDS011;9453;50.294;18.644;2023-06-22T05:10:00;31.90;;;19.52;;
18647;SDS011;9453;50.294;18.644;2023-06-22T05:12:27;27.55;;;18.92;;
18647;SDS011;9453;50.294;18.644;2023-06-22T05:18:10;29.70;;;19.20;;
18647;SDS011;9453;50.294;18.644;2023-06-22T05:20:42;27.48;;;18.58;;
18647;SDS011;9453;50.294;18.644;2023-06-22T05:23:10;30.63;;;19.45;;
18647;SDS011;9453;50.294;18.644;2023-06-22T05:25:39;34.35;;;19.63;;
18647;SDS011;9453;50.294;18.644;2023-06-22T05:28:06;26.75;;;18.40;;
18647;SDS011;9453;50.294;18.644;2023-06-22T05:30:36;26.00;;;18.13;;
18647;SDS011;9453;50.294;18.644;2023-06-22T05:33:04;32.10;;;18.75;;
18647;SDS011;9453;50.294;18.644;2023-06-22T05:35:31;26.35;;;17.88;;
18647;SDS011;9453;50.294;18.644;2023-06-22T05:37:58;24.48;;;18.20;;
18647;SDS011;9453;50.294;18.644;2023-06-22T05:40:25;29.73;;;18.15;;
18647;SDS011;9453;50.294;18.644;2023-06-22T05:42:54;27.00;;;18.83;;
18647;SDS011;9453;50.294;18.644;2023-06-22T05:45:21;30.83;;;16.98;;
18647;SDS011;9453;50.294;18.644;2023-06-22T05:47:47;24.63;;;17.95;;
18647;SDS011;9453;50.294;18.644;2023-06-22T05:50:15;23.90;;;17.52;;
18647;SDS011;9453;50.294;18.644;2023-06-22T05:52:42;27.33;;;16.98;;
18647;SDS011;9453;50.294;18.644;2023-06-22T05:55:09;27.52;;;18.63;;
18647;SDS011;9453;50.294;18.644;2023-06-22T05:57:36;23.48;;;17.30;;
18647;SDS011;9453;50.294;18.644;2023-06-22T06:00:06;26.35;;;18.08;;
18647;SDS011;9453;50.294;18.644;2023-06-22T06:02:35;26.55;;;17.15;;
18647;SDS011;9453;50.294;18.644;2023-06-22T06:05:08;24.80;;;17.30;;
18647;SDS011;9453;50.294;18.644;2023-06-22T06:07:36;26.77;;;17.80;;
18647;SDS011;9453;50.294;18.644;2023-06-22T06:10:03;21.50;;;14.93;;
18647;SDS011;9453;50.294;18.644;2023-06-22T06:12:31;23.33;;;16.58;;
18647;SDS011;9453;50.294;18.644;2023-06-22T06:14:59;21.08;;;14.13;;
18647;SDS011;9453;50.294;18.644;2023-06-22T06:17:27;20.05;;;14.57;;
18647;SDS011;9453;50.294;18.644;2023-06-22T06:19:54;24.15;;;15.15;;
18647;SDS011;9453;50.294;18.644;2023-06-22T06:22:21;22.60;;;14.95;;
18647;SDS011;9453;50.294;18.644;2023-06-22T06:24:48;22.23;;;14.85;;
18647;SDS011;9453;50.294;18.644;2023-06-22T06:27:15;23.85;;;15.80;;
18647;SDS011;9453;50.294;18.644;2023-06-22T06:29:44;22.67;;;15.93;;
18647;SDS011;9453;50.294;18.644;2023-06-22T06:32:13;21.63;;;15.30;;
18647;SDS011;9453;50.294;18.644;2023-06-22T06:34:42;21.77;;;15.10;;
18647;SDS011;9453;50.294;18.644;2023-06-22T06:37:09;19.40;;;14.02;;
18647;SDS011;9453;50.294;18.644;2023-06-22T06:39:36;22.75;;;14.93;;
18647;SDS011;9453;50.294;18.644;2023-06-22T06:42:04;20.65;;;14.90;;
18647;SDS011;9453;50.294;18.644;2023-06-22T06:47:54;18.52;;;14.63;;
18647;SDS011;9453;50.294;18.644;2023-06-22T06:50:22;22.10;;;14.43;;
18647;SDS011;9453;50.294;18.644;2023-06-22T06:52:49;19.25;;;14.38;;
18647;SDS011;9453;50.294;18.644;2023-06-22T06:55:17;22.05;;;14.93;;
18647;SDS011;9453;50.294;18.644;2023-06-22T06:57:45;25.13;;;14.35;;
18647;SDS011;9453;50.294;18.644;2023-06-22T07:00:13;22.15;;;14.57;;
18647;SDS011;9453;50.294;18.644;2023-06-22T07:02:43;18.05;;;13.27;;
18647;SDS011;9453;50.294;18.644;2023-06-22T07:05:12;20.60;;;14.85;;
18647;SDS011;9453;50.294;18.644;2023-06-22T07:07:41;26.85;;;14.98;;
18647;SDS011;9453;50.294;18.644;2023-06-22T07:10:08;18.88;;;14.18;;
18647;SDS011;9453;50.294;18.644;2023-06-22T07:12:35;18.42;;;12.30;;
18647;SDS011;9453;50.294;18.644;2023-06-22T07:15:03;20.23;;;13.40;;
18647;SDS011;9453;50.294;18.644;2023-06-22T07:17:33;20.75;;;14.23;;
18647;SDS011;9453;50.294;18.644;2023-06-22T07:20:00;16.38;;;12.52;;
18647;SDS011;9453;50.294;18.644;2023-06-22T07:22:32;16.25;;;12.38;;
18647;SDS011;9453;50.294;18.644;2023-06-22T07:25:01;21.05;;;12.80;;
18647;SDS011;9453;50.294;18.644;2023-06-22T07:27:33;17.35;;;12.50;;
18647;SDS011;9453;50.294;18.644;2023-06-22T07:30:03;17.52;;;11.77;;
18647;SDS011;9453;50.294;18.644;2023-06-22T07:32:31;17.63;;;9.70;;
18647;SDS011;9453;50.294;18.644;2023-06-22T07:34:58;17.92;;;10.25;;
18647;SDS011;9453;50.294;18.644;2023-06-22T07:37:25;11.73;;;8.75;;
18647;SDS011;9453;50.294;18.644;2023-06-22T07:39:52;11.07;;;8.50;;
18647;SDS011;9453;50.294;18.644;2023-06-22T07:42:24;13.25;;;9.65;;
18647;SDS011;9453;50.294;18.644;2023-06-22T07:44:51;14.05;;;9.20;;
18647;SDS011;9453;50.294;18.644;2023-06-22T07:47:19;12.35;;;9.65;;
18647;SDS011;9453;50.294;18.644;2023-06-22T07:49:50;12.45;;;9.52;;
18647;SDS011;9453;50.294;18.644;2023-06-22T07:52:17;12.15;;;9.23;;
18647;SDS011;9453;50.294;18.644;2023-06-22T07:54:44;12.68;;;9.07;;
18647;SDS011;9453;50.294;18.644;2023-06-22T07:57:11;15.30;;;9.25;;
18647;SDS011;9453;50.294;18.644;2023-06-22T07:59:39;13.07;;;9.25;;
18647;SDS011;9453;50.294;18.644;2023-06-22T08:02:06;12.02;;;9.48;;
18647;SDS011;9453;50.294;18.644;2023-06-22T08:04:34;13.95;;;8.63;;
18647;SDS011;9453;50.294;18.644;2023-06-22T08:07:01;14.02;;;8.40;;
18647;SDS011;9453;50.294;18.644;2023-06-22T08:09:29;10.13;;;7.90;;
18647;SDS011;9453;50.294;18.644;2023-06-22T08:11:57;13.48;;;8.20;;
18647;SDS011;9453;50.294;18.644;2023-06-22T08:14:25;12.48;;;8.73;;
18647;SDS011;9453;50.294;18.644;2023-06-22T08:16:54;12.02;;;7.72;;
18647;SDS011;9453;50.294;18.644;2023-06-22T08:19:20;12.65;;;8.25;;
18647;SDS011;9453;50.294;18.644;2023-06-22T08:21:47;10.77;;;7.90;;
18647;SDS011;9453;50.294;18.644;2023-06-22T08:24:14;8.63;;;7.35;;
18647;SDS011;9453;50.294;18.644;2023-06-22T08:26:41;11.05;;;7.15;;
18647;SDS011;9453;50.294;18.644;2023-06-22T08:29:08;10.60;;;7.70;;
18647;SDS011;9453;50.294;18.644;2023-06-22T08:31:35;10.02;;;7.50;;
18647;SDS011;9453;50.294;18.644;2023-06-22T08:34:04;11.55;;;8.15;;
18647;SDS011;9453;50.294;18.644;2023-06-22T08:36:31;9.05;;;6.93;;
18647;SDS011;9453;50.294;18.644;2023-06-22T08:39:06;9.23;;;7.63;;
18647;SDS011;9453;50.294;18.644;2023-06-22T08:41:34;9.98;;;7.38;;
18647;SDS011;9453;50.294;18.644;2023-06-22T08:44:01;9.23;;;6.85;;
18647;SDS011;9453;50.294;18.644;2023-06-22T08:46:29;13.98;;;7.47;;
18647;SDS011;9453;50.294;18.644;2023-06-22T08:48:58;11.07;;;8.27;;
18647;SDS011;9453;50.294;18.644;2023-06-22T08:51:27;10.63;;;7.55;;
18647;SDS011;9453;50.294;18.644;2023-06-22T08:53:54;10.60;;;7.82;;
18647;SDS011;9453;50.294;18.644;2023-06-22T08:56:21;9.25;;;6.95;;
18647;SDS011;9453;50.294;18.644;2023-06-22T08:58:48;8.57;;;7.03;;
18647;SDS011;9453;50.294;18.644;2023-06-22T09:01:15;10.05;;;7.07;;
18647;SDS011;9453;50.294;18.644;2023-06-22T09:03:42;9.55;;;6.68;;
18647;SDS011;9453;50.294;18.644;2023-06-22T09:06:09;12.77;;;7.75;;
18647;SDS011;9453;50.294;18.644;2023-06-22T09:08:37;11.77;;;7.05;;
18647;SDS011;9453;50.294;18.644;2023-06-22T09:11:04;10.27;;;7.03;;
18647;SDS011;9453;50.294;18.644;2023-06-22T09:13:32;8.95;;;7.03;;
18647;SDS011;9453;50.294;18.644;2023-06-22T09:15:59;11.57;;;6.97;;
18647;SDS011;9453;50.294;18.644;2023-06-22T09:18:26;9.77;;;7.63;;
18647;SDS011;9453;50.294;18.644;2023-06-22T09:20:54;10.10;;;6.90;;
18647;SDS011;9453;50.294;18.644;2023-06-22T09:23:21;8.35;;;6.05;;
18647;SDS011;9453;50.294;18.644;2023-06-22T09:25:49;8.90;;;6.22;;
18647;SDS011;9453;50.294;18.644;2023-06-22T09:28:16;8.50;;;6.63;;
18647;SDS011;9453;50.294;18.644;2023-06-22T09:30:43;7.68;;;6.57;;
18647;SDS011;9453;50.294;18.644;2023-06-22T09:33:10;7.25;;;6.30;;
18647;SDS011;9453;50.294;18.644;2023-06-22T09:35:37;9.18;;;6.47;;
18647;SDS011;9453;50.294;18.644;2023-06-22T09:38:04;9.55;;;7.47;;
18647;SDS011;9453;50.294;18.644;2023-06-22T09:40:32;11.48;;;6.55;;
18647;SDS011;9453;50.294;18.644;2023-06-22T09:43:02;8.13;;;6.60;;
18647;SDS011;9453;50.294;18.644;2023-06-22T09:45:29;7.57;;;6.20;;
18647;SDS011;9453;50.294;18.644;2023-06-22T09:47:56;8.85;;;7.10;;
18647;SDS011;9453;50.294;18.644;2023-06-22T09:50:23;7.25;;;6.25;;
18647;SDS011;9453;50.294;18.644;2023-06-22T09:52:50;9.00;;;6.93;;
18647;SDS011;9453;50.294;18.644;2023-06-22T09:55:19;9.50;;;7.20;;
18647;SDS011;9453;50.294;18.644;2023-06-22T09:57:46;7.18;;;6.20;;
18647;SDS011;9453;50.294;18.644;2023-06-22T10:00:15;9.30;;;6.07;;
18647;SDS011;9453;50.294;18.644;2023-06-22T10:02:46;9.05;;;6.88;;
18647;SDS011;9453;50.294;18.644;2023-06-22T10:05:13;7.90;;;6.63;;
18647;SDS011;9453;50.294;18.644;2023-06-22T10:07:40;10.88;;;6.13;;
18647;SDS011;9453;50.294;18.644;2023-06-22T10:10:09;9.82;;;6.45;;
18647;SDS011;9453;50.294;18.644;2023-06-22T10:12:40;8.25;;;6.13;;
18647;SDS011;9453;50.294;18.644;2023-06-22T10:15:08;10.88;;;5.80;;
18647;SDS011;9453;50.294;18.644;2023-06-22T10:17:37;7.40;;;5.80;;
18647;SDS011;9453;50.294;18.644;2023-06-22T10:20:04;10.18;;;5.85;;
18647;SDS011;9453;50.294;18.644;2023-06-22T10:22:36;7.63;;;6.13;;
18647;SDS011;9453;50.294;18.644;2023-06-22T10:25:04;8.25;;;6.10;;
18647;SDS011;9453;50.294;18.644;2023-06-22T10:27:32;7.35;;;5.93;;
18647;SDS011;9453;50.294;18.644;2023-06-22T10:29:59;7.85;;;5.45;;
18647;SDS011;9453;50.294;18.644;2023-06-22T10:32:26;8.15;;;5.80;;
18647;SDS011;9453;50.294;18.644;2023-06-22T10:34:55;8.05;;;6.25;;
18647;SDS011;9453;50.294;18.644;2023-06-22T10:37:23;8.00;;;6.28;;
18647;SDS011;9453;50.294;18.644;2023-06-22T10:39:49;10.00;;;5.75;;
18647;SDS011;9453;50.294;18.644;2023-06-22T10:42:16;9.23;;;6.05;;
18647;SDS011;9453;50.294;18.644;2023-06-22T10:44:43;6.82;;;5.28;;
18647;SDS011;9453;50.294;18.644;2023-06-22T10:47:10;6.57;;;5.60;;
18647;SDS011;9453;50.294;18.644;2023-06-22T10:49:37;6.90;;;5.75;;
18647;SDS011;9453;50.294;18.644;2023-06-22T10:52:07;9.00;;;6.60;;
18647;SDS011;9453;50.294;18.644;2023-06-22T10:54:35;8.52;;;6.10;;
18647;SDS011;9453;50.294;18.644;2023-06-22T10:57:03;6.32;;;5.28;;
18647;SDS011;9453;50.294;18.644;2023-06-22T10:59:30;7.72;;;6.18;;
18647;SDS011;9453;50.294;18.644;2023-06-22T11:01:58;12.05;;;5.95;;
18647;SDS011;9453;50.294;18.644;2023-06-22T11:04:25;7.40;;;5.78;;
18647;SDS011;9453;50.294;18.644;2023-06-22T11:06:52;6.53;;;5.55;;
18647;SDS011;9453;50.294;18.644;2023-06-22T11:09:20;7.25;;;5.75;;
18647;SDS011;9453;50.294;18.644;2023-06-22T11:11:47;6.80;;;5.50;;
18647;SDS011;9453;50.294;18.644;2023-06-22T11:14:15;11.35;;;5.85;;
18647;SDS011;9453;50.294;18.644;2023-06-22T11:16:42;10.75;;;6.30;;
18647;SDS011;9453;50.294;18.644;2023-06-22T11:19:09;9.75;;;5.65;;
18647;SDS011;9453;50.294;18.644;2023-06-22T11:21:36;6.05;;;5.10;;
18647;SDS011;9453;50.294;18.644;2023-06-22T11:24:03;8.00;;;5.30;;
18647;SDS011;9453;50.294;18.644;2023-06-22T11:26:32;6.60;;;5.38;;
18647;SDS011;9453;50.294;18.644;2023-06-22T11:29:00;6.18;;;5.38;;
18647;SDS011;9453;50.294;18.644;2023-06-22T11:31:30;9.45;;;5.32;;
18647;SDS011;9453;50.294;18.644;2023-06-22T11:33:57;7.00;;;5.63;;
18647;SDS011;9453;50.294;18.644;2023-06-22T11:36:24;7.35;;;5.82;;
18647;SDS011;9453;50.294;18.644;2023-06-22T11:38:54;7.93;;;5.63;;
18647;SDS011;9453;50.294;18.644;2023-06-22T11:41:21;6.50;;;5.63;;
18647;SDS011;9453;50.294;18.644;2023-06-22T11:43:49;9.32;;;6.68;;
18647;SDS011;9453;50.294;18.644;2023-06-22T11:46:16;9.57;;;7.10;;
18647;SDS011;9453;50.294;18.644;2023-06-22T11:48:43;8.20;;;6.28;;
18647;SDS011;9453;50.294;18.644;2023-06-22T11:51:10;7.70;;;6.63;;
18647;SDS011;9453;50.294;18.644;2023-06-22T11:53:37;8.98;;;6.85;;
18647;SDS011;9453;50.294;18.644;2023-06-22T11:56:04;9.00;;;6.40;;
18647;SDS011;9453;50.294;18.644;2023-06-22T11:58:31;9.70;;;6.28;;
18647;SDS011;9453;50.294;18.644;2023-06-22T12:00:59;7.88;;;5.75;;
18647;SDS011;9453;50.294;18.644;2023-06-22T12:03:26;12.27;;;6.30;;
18647;SDS011;9453;50.294;18.644;2023-06-22T12:05:54;10.13;;;6.03;;
18647;SDS011;9453;50.294;18.644;2023-06-22T12:08:21;8.80;;;6.57;;
18647;SDS011;9453;50.294;18.644;2023-06-22T12:10:49;9.73;;;5.88;;
18647;SDS011;9453;50.294;18.644;2023-06-22T12:13:17;9.77;;;6.38;;
18647;SDS011;9453;50.294;18.644;2023-06-22T12:15:44;6.78;;;5.70;;
18647;SDS011;9453;50.294;18.644;2023-06-22T12:18:12;7.22;;;5.70;;
18647;SDS011;9453;50.294;18.644;2023-06-22T12:20:40;10.32;;;5.97;;
18647;SDS011;9453;50.294;18.644;2023-06-22T12:23:07;11.52;;;6.35;;
18647;SDS011;9453;50.294;18.644;2023-06-22T12:25:34;8.43;;;6.25;;
18647;SDS011;9453;50.294;18.644;2023-06-22T12:28:00;9.88;;;6.80;;
18647;SDS011;9453;50.294;18.644;2023-06-22T12:30:27;7.75;;;6.50;;
18647;SDS011;9453;50.294;18.644;2023-06-22T12:32:54;7.70;;;6.45;;
18647;SDS011;9453;50.294;18.644;2023-06-22T12:35:23;7.70;;;6.65;;
18647;SDS011;9453;50.294;18.644;2023-06-22T12:37:50;9.60;;;6.28;;
18647;SDS011;9453;50.294;18.644;2023-06-22T12:40:18;8.65;;;6.88;;
18647;SDS011;9453;50.294;18.644;2023-06-22T12:42:45;10.52;;;6.63;;
18647;SDS011;9453;50.294;18.644;2023-06-22T12:45:12;6.38;;;5.60;;
18647;SDS011;9453;50.294;18.644;2023-06-22T12:47:39;7.88;;;5.60;;
18647;SDS011;9453;50.294;18.644;2023-06-22T12:50:06;6.57;;;5.78;;
18647;SDS011;9453;50.294;18.644;2023-06-22T12:52:36;9.57;;;6.80;;
18647;SDS011;9453;50.294;18.644;2023-06-22T12:55:04;9.48;;;6.00;;
18647;SDS011;9453;50.294;18.644;2023-06-22T12:57:32;8.90;;;6.70;;
18647;SDS011;9453;50.294;18.644;2023-06-22T12:59:59;7.05;;;5.93;;
18647;SDS011;9453;50.294;18.644;2023-06-22T13:02:26;11.02;;;6.57;;
18647;SDS011;9453;50.294;18.644;2023-06-22T13:04:53;8.63;;;6.00;;
18647;SDS011;9453;50.294;18.644;2023-06-22T13:07:20;9.05;;;6.20;;
18647;SDS011;9453;50.294;18.644;2023-06-22T13:09:48;8.63;;;5.80;;
18647;SDS011;9453;50.294;18.644;2023-06-22T13:12:17;9.50;;;6.43;;
18647;SDS011;9453;50.294;18.644;2023-06-22T13:14:45;8.70;;;6.10;;
18647;SDS011;9453;50.294;18.644;2023-06-22T13:17:12;7.35;;;6.15;;
18647;SDS011;9453;50.294;18.644;2023-06-22T13:19:39;6.68;;;5.72;;
18647;SDS011;9453;50.294;18.644;2023-06-22T13:22:09;8.65;;;5.80;;
18647;SDS011;9453;50.294;18.644;2023-06-22T13:24:54;6.70;;;5.40;;
18647;SDS011;9453;50.294;18.644;2023-06-22T13:27:21;7.85;;;5.53;;
18647;SDS011;9453;50.294;18.644;2023-06-22T13:29:48;8.02;;;5.55;;
18647;SDS011;9453;50.294;18.644;2023-06-22T13:32:15;9.55;;;6.03;;
18647;SDS011;9453;50.294;18.644;2023-06-22T13:34:43;6.05;;;5.40;;
18647;SDS011;9453;50.294;18.644;2023-06-22T13:37:10;6.43;;;5.70;;
18647;SDS011;9453;50.294;18.644;2023-06-22T13:39:37;7.93;;;5.63;;
18647;SDS011;9453;50.294;18.644;2023-06-22T13:42:05;7.55;;;5.53;;
18647;SDS011;9453;50.294;18.644;2023-06-22T13:44:33;6.47;;;5.28;;
18647;SDS011;9453;50.294;18.644;2023-06-22T13:47:00;7.40;;;5.72;;
18647;SDS011;9453;50.294;18.644;2023-06-22T13:49:27;6.35;;;5.47;;
18647;SDS011;9453;50.294;18.644;2023-06-22T13:51:54;6.97;;;5.70;;
18647;SDS011;9453;50.294;18.644;2023-06-22T13:54:21;6.82;;;5.40;;
18647;SDS011;9453;50.294;18.644;2023-06-22T13:56:48;8.10;;;6.15;;
18647;SDS011;9453;50.294;18.644;2023-06-22T13:59:16;5.85;;;4.95;;
18647;SDS011;9453;50.294;18.644;2023-06-22T14:01:44;8.13;;;5.30;;
18647;SDS011;9453;50.294;18.644;2023-06-22T14:04:11;7.70;;;5.88;;
18647;SDS011;9453;50.294;18.644;2023-06-22T14:06:38;8.00;;;5.60;;
18647;SDS011;9453;50.294;18.644;2023-06-22T14:09:05;6.55;;;5.22;;
18647;SDS011;9453;50.294;18.644;2023-06-22T14:11:32;6.40;;;5.05;;
18647;SDS011;9453;50.294;18.644;2023-06-22T14:13:59;21.23;;;5.85;;
18647;SDS011;9453;50.294;18.644;2023-06-22T14:16:27;6.55;;;5.13;;
18647;SDS011;9453;50.294;18.644;2023-06-22T14:18:54;6.50;;;4.90;;
18647;SDS011;9453;50.294;18.644;2023-06-22T14:21:21;9.95;;;5.10;;
18647;SDS011;9453;50.294;18.644;2023-06-22T14:23:48;7.05;;;5.03;;
18647;SDS011;9453;50.294;18.644;2023-06-22T14:26:15;5.60;;;5.00;;
18647;SDS011;9453;50.294;18.644;2023-06-22T14:28:43;6.47;;;5.13;;
18647;SDS011;9453;50.294;18.644;2023-06-22T14:31:13;6.97;;;5.07;;
18647;SDS011;9453;50.294;18.644;2023-06-22T14:33:45;6.50;;;5.47;;
18647;SDS011;9453;50.294;18.644;2023-06-22T14:36:13;6.97;;;5.18;;
18647;SDS011;9453;50.294;18.644;2023-06-22T14:38:41;5.75;;;4.95;;
18647;SDS011;9453;50.294;18.644;2023-06-22T14:41:08;6.82;;;4.93;;
18647;SDS011;9453;50.294;18.644;2023-06-22T14:43:35;5.82;;;5.07;;
18647;SDS011;9453;50.294;18.644;2023-06-22T14:46:02;5.55;;;4.75;;
18647;SDS011;9453;50.294;18.644;2023-06-22T14:48:29;5.78;;;4.78;;
18647;SDS011;9453;50.294;18.644;2023-06-22T14:50:58;6.40;;;5.32;;
18647;SDS011;9453;50.294;18.644;2023-06-22T14:53:25;5.97;;;4.53;;
18647;SDS011;9453;50.294;18.644;2023-06-22T14:55:52;8.57;;;5.25;;
18647;SDS011;9453;50.294;18.644;2023-06-22T14:58:19;6.80;;;5.07;;
18647;SDS011;9453;50.294;18.644;2023-06-22T15:00:46;5.57;;;5.00;;
18647;SDS011;9453;50.294;18.644;2023-06-22T15:03:14;6.30;;;4.88;;
18647;SDS011;9453;50.294;18.644;2023-06-22T15:05:46;7.07;;;4.82;;
18647;SDS011;9453;50.294;18.644;2023-06-22T15:08:14;6.18;;;4.90;;
18647;SDS011;9453;50.294;18.644;2023-06-22T15:10:41;6.63;;;5.28;;
18647;SDS011;9453;50.294;18.644;2023-06-22T15:13:08;6.30;;;4.97;;
18647;SDS011;9453;50.294;18.644;2023-06-22T15:15:35;6.35;;;4.95;;
18647;SDS011;9453;50.294;18.644;2023-06-22T15:18:03;5.03;;;4.53;;
18647;SDS011;9453;50.294;18.644;2023-06-22T15:20:30;6.72;;;4.45;;
18647;SDS011;9453;50.294;18.644;2023-06-22T15:22:57;5.05;;;4.10;;
18647;SDS011;9453;50.294;18.644;2023-06-22T15:25:25;6.18;;;4.60;;
18647;SDS011;9453;50.294;18.644;2023-06-22T15:27:52;6.20;;;4.75;;
18647;SDS011;9453;50.294;18.644;2023-06-22T15:30:19;5.35;;;4.60;;
18647;SDS011;9453;50.294;18.644;2023-06-22T15:32:46;7.03;;;5.15;;
18647;SDS011;9453;50.294;18.644;2023-06-22T15:35:14;5.57;;;4.75;;
18647;SDS011;9453;50.294;18.644;2023-06-22T15:37:43;7.63;;;4.70;;
18647;SDS011;9453;50.294;18.644;2023-06-22T15:40:11;5.07;;;4.57;;
18647;SDS011;9453;50.294;18.644;2023-06-22T15:42:39;5.22;;;4.72;;
18647;SDS011;9453;50.294;18.644;2023-06-22T15:45:06;7.88;;;5.22;;
18647;SDS011;9453;50.294;18.644;2023-06-22T15:47:35;5.47;;;4.93;;
18647;SDS011;9453;50.294;18.644;2023-06-22T15:50:02;7.28;;;4.60;;
18647;SDS011;9453;50.294;18.644;2023-06-22T15:52:29;7.57;;;5.07;;
18647;SDS011;9453;50.294;18.644;2023-06-22T15:54:56;6.50;;;5.30;;
18647;SDS011;9453;50.294;18.644;2023-06-22T15:57:25;5.65;;;4.95;;
18647;SDS011;9453;50.294;18.644;2023-06-22T16:03:15;5.03;;;4.28;;
18647;SDS011;9453;50.294;18.644;2023-06-22T16:05:43;7.05;;;4.90;;
18647;SDS011;9453;50.294;18.644;2023-06-22T16:08:10;13.40;;;5.05;;
18647;SDS011;9453;50.294;18.644;2023-06-22T16:10:37;5.60;;;4.60;;
18647;SDS011;9453;50.294;18.644;2023-06-22T16:13:05;7.88;;;5.18;;
18647;SDS011;9453;50.294;18.644;2023-06-22T16:15:32;6.85;;;5.13;;
18647;SDS011;9453;50.294;18.644;2023-06-22T16:17:59;6.18;;;4.10;;
18647;SDS011;9453;50.294;18.644;2023-06-22T16:20:27;9.77;;;5.32;;
18647;SDS011;9453;50.294;18.644;2023-06-22T16:22:54;7.95;;;4.82;;
18647;SDS011;9453;50.294;18.644;2023-06-22T16:25:21;6.22;;;5.15;;
18647;SDS011;9453;50.294;18.644;2023-06-22T16:27:48;6.82;;;5.28;;
18647;SDS011;9453;50.294;18.644;2023-06-22T16:30:15;5.43;;;4.45;;
18647;SDS011;9453;50.294;18.644;2023-06-22T16:32:52;6.70;;;5.50;;
18647;SDS011;9453;50.294;18.644;2023-06-22T16:35:19;6.60;;;4.72;;
18647;SDS011;9453;50.294;18.644;2023-06-22T16:37:48;7.22;;;4.90;;
18647;SDS011;9453;50.294;18.644;2023-06-22T16:40:15;6.40;;;5.13;;
18647;SDS011;9453;50.294;18.644;2023-06-22T16:42:45;7.45;;;4.97;;
18647;SDS011;9453;50.294;18.644;2023-06-22T16:45:12;6.32;;;5.25;;
18647;SDS011;9453;50.294;18.644;2023-06-22T16:47:40;10.13;;;5.32;;
18647;SDS011;9453;50.294;18.644;2023-06-22T16:50:07;5.65;;;4.97;;
18647;SDS011;9453;50.294;18.644;2023-06-22T16:52:35;7.07;;;5.38;;
18647;SDS011;9453;50.294;18.644;2023-06-22T16:55:04;7.00;;;5.40;;
18647;SDS011;9453;50.294;18.644;2023-06-22T16:57:33;5.55;;;4.88;;
18647;SDS011;9453;50.294;18.644;2023-06-22T17:00:00;9.15;;;5.03;;
18647;SDS011;9453;50.294;18.644;2023-06-22T17:02:27;7.65;;;5.13;;
18647;SDS011;9453;50.294;18.644;2023-06-22T17:04:58;6.43;;;5.22;;
18647;SDS011;9453;50.294;18.644;2023-06-22T17:07:26;11.77;;;5.68;;
18647;SDS011;9453;50.294;18.644;2023-06-22T17:09:54;9.82;;;5.38;;
18647;SDS011;9453;50.294;18.644;2023-06-22T17:12:25;9.02;;;5.53;;
18647;SDS011;9453;50.294;18.644;2023-06-22T17:14:52;8.13;;;5.72;;
18647;SDS011;9453;50.294;18.644;2023-06-22T17:17:20;6.18;;;4.93;;
18647;SDS011;9453;50.294;18.644;2023-06-22T17:19:50;6.35;;;4.90;;
18647;SDS011;9453;50.294;18.644;2023-06-22T17:22:17;6.72;;;5.38;;
18647;SDS011;9453;50.294;18.644;2023-06-22T17:24:44;5.65;;;4.63;;
18647;SDS011;9453;50.294;18.644;2023-06-22T17:27:12;7.05;;;5.30;;
18647;SDS011;9453;50.294;18.644;2023-06-22T17:29:40;8.60;;;5.13;;
18647;SDS011;9453;50.294;18.644;2023-06-22T17:32:07;8.27;;;4.85;;
18647;SDS011;9453;50.294;18.644;2023-06-22T17:34:34;9.23;;;4.97;;
18647;SDS011;9453;50.294;18.644;2023-06-22T17:37:02;6.55;;;4.78;;
18647;SDS011;9453;50.294;18.644;2023-06-22T17:39:29;6.97;;;4.85;;
18647;SDS011;9453;50.294;18.644;2023-06-22T17:41:56;5.10;;;4.55;;
18647;SDS011;9453;50.294;18.644;2023-06-22T17:44:24;8.32;;;4.68;;
18647;SDS011;9453;50.294;18.644;2023-06-22T17:46:54;6.10;;;4.57;;
18647;SDS011;9453;50.294;18.644;2023-06-22T17:49:25;5.70;;;4.57;;
18647;SDS011;9453;50.294;18.644;2023-06-22T17:51:54;7.40;;;5.18;;
18647;SDS011;9453;50.294;18.644;2023-06-22T17:54:22;6.45;;;4.90;;
18647;SDS011;9453;50.294;18.644;2023-06-22T17:56:49;9.80;;;5.05;;
18647;SDS011;9453;50.294;18.644;2023-06-22T17:59:17;7.78;;;4.97;;
18647;SDS011;9453;50.294;18.644;2023-06-22T18:01:45;6.13;;;5.10;;
18647;SDS011;9453;50.294;18.644;2023-06-22T18:04:15;13.27;;;5.10;;
18647;SDS011;9453;50.294;18.644;2023-06-22T18:06:45;7.88;;;5.53;;
18647;SDS011;9453;50.294;18.644;2023-06-22T18:09:14;9.88;;;6.28;;
18647;SDS011;9453;50.294;18.644;2023-06-22T18:11:43;8.55;;;5.50;;
18647;SDS011;9453;50.294;18.644;2023-06-22T18:14:13;10.63;;;7.05;;
18647;SDS011;9453;50.294;18.644;2023-06-22T18:16:42;24.15;;;14.60;;
18647;SDS011;9453;50.294;18.644;2023-06-22T18:19:10;22.52;;;14.07;;
18647;SDS011;9453;50.294;18.644;2023-06-22T18:21:41;19.60;;;12.38;;
18647;SDS011;9453;50.294;18.644;2023-06-22T18:24:13;17.05;;;11.43;;
18647;SDS011;9453;50.294;18.644;2023-06-22T18:26:41;11.43;;;8.48;;
18647;SDS011;9453;50.294;18.644;2023-06-22T18:29:09;12.55;;;7.78;;
18647;SDS011;9453;50.294;18.644;2023-06-22T18:31:37;9.35;;;6.57;;
18647;SDS011;9453;50.294;18.644;2023-06-22T18:34:06;7.30;;;5.68;;
18647;SDS011;9453;50.294;18.644;2023-06-22T18:36:37;7.50;;;6.03;;
18647;SDS011;9453;50.294;18.644;2023-06-22T18:39:08;9.10;;;6.63;;
18647;SDS011;9453;50.294;18.644;2023-06-22T18:41:37;9.70;;;6.13;;
18647;SDS011;9453;50.294;18.644;2023-06-22T18:44:10;12.63;;;6.85;;
18647;SDS011;9453;50.294;18.644;2023-06-22T18:46:38;8.57;;;6.22;;
18647;SDS011;9453;50.294;18.644;2023-06-22T18:49:11;9.77;;;6.25;;
18647;SDS011;9453;50.294;18.644;2023-06-22T18:51:52;8.52;;;6.43;;
18647;SDS011;9453;50.294;18.644;2023-06-22T18:54:29;8.38;;;5.95;;